Onde está Camões, Portalegre en Portugal?

Camões está situado na região Portalegre em Portugal!

Buscar o nome de uma cidade:

Camotero, Camoma, Camogli, Camondag, Camoruco

Aqui você vai encontrar a localização de Camões em um mapa.
Para ver como ele atualmente parece, abaixo estão algumas fotos da região, com webcams online.
Você também pode encontrar a distância para as principais cidades da região e de cidades do resto do Portugal.

2 lugares nomeadas Camões na Portugal.

Todos os lugares do mundo chamado .

new

Onde está Camões no mapa?


Webcams perto Camões

Abrantes > South-West: Centro Cidade.


Abrantes > South-West: Centro Cidade - Dia
Actual
Abrantes > South-West: Centro Cidade - Actual

Abrantes > North-West: > North-West: Zona Alta (Torre).


Abrantes > North-West: > North-West: Zona Alta (Torre) - Dia
Actual
Abrantes > North-West: > North-West: Zona Alta (Torre) - Actual

Benavente > North-East: AIrport, METAR: BENAV 180005Z 36004KT 17/14 Q1015.


Benavente > North-East: AIrport, METAR: BENAV 180005Z 36004KT 17/14 Q1015 - Dia
Actual
Benavente > North-East: AIrport, METAR: BENAV 180005Z 36004KT 17/14 Q1015 - Actual

Webcams provided by webcams.travel

Distâncias

Onde está Camões em relação a outros lugares?

Top 10 cidades em Portalegre e distância de Camões.

Cidade#Populaçãokmmilhas
Portalegre1155816037
Santo André2112132113
Ponte de Sor3110622717
Vale da Amoreira4108282717
Elvas599047446
Campo Maior682358050
Abegoaria7-7647
Abodaneira8-5031
Adega do Mouchão9-1912
Água de Prata10-6037

Top 10 cidades em Portugal e distância de Camões.

Cidade # Populaçãokmmilhas
Lisbon151779810364
Porto2249630245152
Amadora317885610968
Braga4121393286178
Setúbal51171099358
Coimbra610658013886
Queluz710339811169
Funchal8980411069664
Vila Nova de Gaia970810243151
Loures106623010364